Time;durP1;ratioP1;P1;durP2;ratioP2;P2;SDS_P1;SDS_P2;PMS_P1;PMS_P2;Temp;Humidity;BMP_temperature;BMP_pressure;BME280_temperature;BME280_humidity;BME280_pressure;Samples;Min_cycle;Max_cycle;Signal;HPM_P1;HPM_P2
2023/03/27 00:01:00;;;;;;;0.30;0.20;;;11.50;99.90;;;;;;5026307;28;20560;-77
2023/03/27 00:03:27;;;;;;;11.82;5.18;;;11.60;99.90;;;;;;5025942;28;20033;-77
2023/03/27 00:06:10;;;;;;;2.22;1.27;;;11.60;99.90;;;;;;5029708;28;20421;-78
2023/03/27 00:08:36;;;;;;;1.48;0.82;;;11.60;99.90;;;;;;5033071;28;20512;-77
2023/03/27 00:11:02;;;;;;;1.77;0.88;;;11.60;99.90;;;;;;5033030;28;20076;-76
2023/03/27 00:13:29;;;;;;;2.17;0.70;;;11.70;99.90;;;;;;5033654;28;20497;-77
2023/03/27 00:15:56;;;;;;;1.25;0.45;;;11.70;99.90;;;;;;5029642;28;20049;-77
2023/03/27 00:18:23;;;;;;;0.95;0.50;;;11.70;99.90;;;;;;5019621;28;20036;-78
2023/03/27 00:20:50;;;;;;;1.65;0.70;;;11.70;99.90;;;;;;5029661;28;20033;-76
2023/03/27 00:23:18;;;;;;;1.83;0.60;;;11.80;99.90;;;;;;5031432;28;20051;-77
2023/03/27 00:25:49;;;;;;;7.28;2.47;;;11.80;99.90;;;;;;5030059;28;20041;-77
2023/03/27 00:28:16;;;;;;;6.53;3.25;;;11.80;99.90;;;;;;5029754;28;20033;-77
2023/03/27 00:30:42;;;;;;;3.05;1.60;;;11.80;99.90;;;;;;5024979;28;20037;-77
2023/03/27 00:33:11;;;;;;;1.00;0.60;;;11.90;99.90;;;;;;5029746;28;20037;-77
2023/03/27 00:35:37;;;;;;;0.77;0.57;;;11.80;99.90;;;;;;5028934;28;20055;-77
2023/03/27 00:38:03;;;;;;;0.20;0.17;;;11.80;99.90;;;;;;5036564;28;20029;-77
2023/03/27 00:40:31;;;;;;;0.65;0.50;;;11.80;99.90;;;;;;5013004;28;20037;-77
2023/03/27 00:42:56;;;;;;;0.40;0.28;;;11.80;99.90;;;;;;5030580;28;20056;-77
2023/03/27 00:45:27;;;;;;;0.57;0.45;;;11.80;99.90;;;;;;5024054;28;20458;-76
2023/03/27 00:47:59;;;;;;;1.17;0.50;;;11.70;99.90;;;;;;5037555;28;20091;-69
2023/03/27 00:50:29;;;;;;;0.93;0.28;;;11.70;99.90;;;;;;5037041;28;20931;-68
2023/03/27 00:53:04;;;;;;;0.45;0.20;;;11.60;99.90;;;;;;5036152;28;20143;-69
2023/03/27 00:55:35;;;;;;;0.22;0.20;;;11.60;99.90;;;;;;5035012;28;20037;-68
2023/03/27 00:58:05;;;;;;;0.40;0.20;;;11.50;99.90;;;;;;5030683;28;20063;-68
2023/03/27 01:00:32;;;;;;;1.58;0.30;;;11.40;99.90;;;;;;5028438;28;20048;-69
2023/03/27 01:03:01;;;;;;;0.85;0.28;;;11.40;99.90;;;;;;5033559;28;20094;-69
2023/03/27 01:05:28;;;;;;;0.40;0.30;;;11.40;99.90;;;;;;5033883;28;20402;-69
2023/03/27 01:07:56;;;;;;;0.30;0.30;;;11.40;99.90;;;;;;5030685;28;20041;-69
2023/03/27 01:10:29;;;;;;;0.60;0.25;;;11.30;99.90;;;;;;5027567;28;20091;-69
2023/03/27 01:13:01;;;;;;;0.47;0.35;;;11.30;99.90;;;;;;5032273;28;20028;-69
2023/03/27 01:15:43;;;;;;;0.10;0.10;;;11.40;99.90;;;;;;5027711;28;20045;-69
2023/03/27 01:18:32;;;;;;;0.68;0.40;;;11.30;99.90;;;;;;5031229;28;21502;-69
2023/03/27 01:21:16;;;;;;;0.40;0.40;;;11.40;99.90;;;;;;5032280;28;20728;-69
2023/03/27 01:24:03;;;;;;;0.50;0.40;;;11.40;99.90;;;;;;5036307;28;20098;-69
2023/03/27 01:26:32;;;;;;;1.08;0.30;;;11.40;99.90;;;;;;5028752;28;20037;-68
2023/03/27 01:29:32;;;;;;;0.32;0.32;;;11.40;99.90;;;;;;5029036;28;20401;-69
2023/03/27 01:32:16;;;;;;;0.32;0.30;;;11.50;99.90;;;;;;5025224;28;20045;-69
2023/03/27 01:34:56;;;;;;;0.50;0.38;;;11.40;99.90;;;;;;5027864;28;20915;-69
2023/03/27 01:37:56;;;;;;;0.75;0.40;;;11.40;99.90;;;;;;5033111;28;20593;-69
2023/03/27 01:40:28;;;;;;;0.70;0.20;;;11.30;99.90;;;;;;5036059;28;20123;-68
2023/03/27 01:43:10;;;;;;;0.55;0.40;;;11.20;99.90;;;;;;5037624;28;20033;-69
2023/03/27 01:45:45;;;;;;;0.40;0.30;;;11.20;99.90;;;;;;5031420;28;20527;-69
2023/03/27 01:48:31;;;;;;;0.35;0.30;;;11.20;99.90;;;;;;5031314;28;20060;-69
2023/03/27 01:51:02;;;;;;;0.57;0.50;;;11.20;99.90;;;;;;5035299;28;20095;-69
2023/03/27 01:53:53;;;;;;;1.05;0.57;;;11.20;99.90;;;;;;5036542;28;20029;-69
2023/03/27 01:56:27;;;;;;;0.75;0.45;;;11.10;99.90;;;;;;5034620;28;20025;-69
2023/03/27 01:59:19;;;;;;;0.40;0.32;;;11.10;99.90;;;;;;5029557;28;20025;-69
2023/03/27 02:01:52;;;;;;;0.73;0.40;;;11.10;99.90;;;;;;5024184;28;20048;-69
2023/03/27 02:04:23;;;;;;;0.40;0.40;;;11.00;99.90;;;;;;5026709;28;20041;-69
2023/03/27 02:07:01;;;;;;;1.15;0.73;;;11.00;99.90;;;;;;5032005;28;20040;-69
2023/03/27 02:09:42;;;;;;;0.68;0.40;;;11.00;99.90;;;;;;5034088;28;20036;-69
2023/03/27 02:12:14;;;;;;;0.90;0.28;;;11.00;99.90;;;;;;5034378;28;20106;-68
2023/03/27 02:14:52;;;;;;;0.35;0.15;;;11.10;99.90;;;;;;5027797;28;20049;-69
2023/03/27 02:17:20;;;;;;;2.28;0.50;;;11.10;99.90;;;;;;5025024;28;20061;-69
2023/03/27 02:19:49;;;;;;;0.63;0.38;;;11.10;99.90;;;;;;5030776;28;20037;-69
2023/03/27 02:22:15;;;;;;;0.30;0.30;;;11.10;99.90;;;;;;5016308;28;20052;-69
2023/03/27 02:24:42;;;;;;;0.40;0.32;;;11.00;99.90;;;;;;5028854;28;20126;-69
2023/03/27 02:27:43;;;;;;;0.60;0.50;;;11.00;99.90;;;;;;5036159;28;20033;-69
2023/03/27 02:30:32;;;;;;;0.60;0.30;;;10.90;99.90;;;;;;5029580;28;20046;-69
2023/03/27 02:33:13;;;;;;;0.60;0.40;;;10.90;99.90;;;;;;5029896;28;20363;-69
2023/03/27 02:35:47;;;;;;;0.90;0.28;;;10.90;99.90;;;;;;5034576;28;20129;-69
2023/03/27 02:38:42;;;;;;;0.52;0.40;;;10.90;99.90;;;;;;5033965;28;20034;-69
2023/03/27 02:41:16;;;;;;;0.65;0.60;;;10.90;99.90;;;;;;5035284;28;20179;-69
2023/03/27 02:44:15;;;;;;;1.42;0.50;;;10.80;99.90;;;;;;5035333;28;20055;-79
2023/03/27 02:46:52;;;;;;;0.65;0.40;;;10.80;99.90;;;;;;5034749;28;20041;-77
2023/03/27 02:49:30;;;;;;;1.55;0.90;;;10.80;99.90;;;;;;5034580;28;20025;-78
2023/03/27 02:52:02;;;;;;;2.10;0.80;;;10.80;99.90;;;;;;5031882;28;20126;-78
2023/03/27 02:54:31;;;;;;;;;;;10.80;99.90;;;;;;5033599;28;20821;-78
2023/03/27 02:57:04;;;;;;;1.58;1.20;;;10.70;99.90;;;;;;5035227;28;19971;-78
2023/03/27 02:59:37;;;;;;;2.58;1.38;;;10.80;99.90;;;;;;5035521;28;20786;-78
2023/03/27 03:02:09;;;;;;;1.92;1.83;;;10.80;99.90;;;;;;5035961;28;20041;-78
2023/03/27 03:04:55;;;;;;;2.15;1.80;;;10.80;99.90;;;;;;5030973;28;20095;-78
2023/03/27 03:07:23;;;;;;;1.33;1.23;;;10.80;99.90;;;;;;5033087;28;20037;-78
2023/03/27 03:09:49;;;;;;;2.70;1.30;;;10.80;99.90;;;;;;5038774;28;20053;-78
2023/03/27 03:12:15;;;;;;;1.45;1.35;;;10.80;99.90;;;;;;5033356;28;20044;-77
2023/03/27 03:14:45;;;;;;;3.03;1.98;;;10.90;99.90;;;;;;5034150;28;20040;-78
2023/03/27 03:17:15;;;;;;;2.75;1.73;;;10.90;99.90;;;;;;5035780;28;20040;-78
2023/03/27 03:19:41;;;;;;;2.90;1.88;;;10.90;99.90;;;;;;5038405;28;20043;-78
2023/03/27 03:22:07;;;;;;;5.65;2.00;;;10.80;99.90;;;;;;5033353;28;20041;-78
2023/03/27 03:24:34;;;;;;;2.55;1.90;;;10.80;99.90;;;;;;5033144;28;20052;-78
2023/03/27 03:27:01;;;;;;;2.10;1.95;;;10.80;99.90;;;;;;5033786;28;20029;-78
2023/03/27 03:29:34;;;;;;;3.50;2.17;;;10.80;99.90;;;;;;5036876;28;20048;-78
2023/03/27 03:32:00;;;;;;;2.70;2.17;;;10.80;99.90;;;;;;5037230;28;20037;-78
2023/03/27 03:34:26;;;;;;;2.63;2.42;;;10.70;99.90;;;;;;5032705;28;20029;-77
2023/03/27 03:36:54;;;;;;;2.92;2.50;;;10.70;99.90;;;;;;5033063;28;20044;-78
2023/03/27 03:39:20;;;;;;;3.45;2.58;;;10.60;99.90;;;;;;5016920;28;20566;-78
2023/03/27 03:41:46;;;;;;;3.10;2.40;;;10.60;99.90;;;;;;5033466;28;20045;-78
2023/03/27 03:44:12;;;;;;;3.50;2.83;;;10.70;99.90;;;;;;5033611;28;20052;-76
2023/03/27 03:46:38;;;;;;;2.90;2.60;;;10.60;99.90;;;;;;5035481;28;20033;-77
2023/03/27 03:49:04;;;;;;;3.38;3.08;;;10.60;99.90;;;;;;5035285;28;20224;-76
2023/03/27 03:51:30;;;;;;;3.53;2.88;;;10.50;99.90;;;;;;5035356;28;20025;-77
2023/03/27 03:53:56;;;;;;;3.35;3.05;;;10.50;99.90;;;;;;5035837;28;20034;-77
2023/03/27 03:56:23;;;;;;;3.47;3.15;;;10.60;99.90;;;;;;5030258;28;20499;-77
2023/03/27 03:58:48;;;;;;;3.42;3.13;;;10.60;99.90;;;;;;5025444;28;20068;-68
2023/03/27 04:01:19;;;;;;;3.67;3.38;;;10.50;99.90;;;;;;5024922;28;20120;-69
2023/03/27 04:03:45;;;;;;;4.88;3.20;;;10.50;99.90;;;;;;5030670;28;20060;-68
2023/03/27 04:06:11;;;;;;;4.90;3.22;;;10.50;99.90;;;;;;5024675;28;20808;-68
2023/03/27 04:08:38;;;;;;;5.07;3.20;;;10.60;99.90;;;;;;5027130;28;20057;-69
2023/03/27 04:11:04;;;;;;;3.22;2.92;;;10.60;99.90;;;;;;5022664;28;20041;-68
2023/03/27 04:13:30;;;;;;;3.40;3.15;;;10.60;99.90;;;;;;5034269;28;20036;-68
2023/03/27 04:15:57;;;;;;;3.17;2.92;;;10.60;99.90;;;;;;5030713;28;20053;-69
2023/03/27 04:18:31;;;;;;;3.60;3.30;;;10.60;99.90;;;;;;5028628;28;20115;-69
2023/03/27 04:20:57;;;;;;;3.58;3.20;;;10.60;99.90;;;;;;5030925;28;20037;-68
2023/03/27 04:23:30;;;;;;;3.15;2.95;;;10.60;99.90;;;;;;5026949;28;21708;-69
2023/03/27 04:25:59;;;;;;;4.38;3.17;;;10.60;99.90;;;;;;5030446;28;20080;-68
2023/03/27 04:28:26;;;;;;;3.90;3.60;;;10.60;99.90;;;;;;5026052;28;21141;-68
2023/03/27 04:30:52;;;;;;;5.05;4.60;;;10.70;99.90;;;;;;5023945;28;20110;-67
2023/03/27 04:33:18;;;;;;;6.43;4.72;;;10.60;99.90;;;;;;5024802;28;20045;-67
2023/03/27 04:35:45;;;;;;;5.07;4.57;;;10.60;99.90;;;;;;5020928;28;20041;-68
2023/03/27 04:38:15;;;;;;;4.93;4.20;;;10.70;99.90;;;;;;5030136;28;20040;-80
2023/03/27 04:40:44;;;;;;;4.93;4.43;;;10.70;99.90;;;;;;5026598;28;20563;-81
2023/03/27 04:43:12;;;;;;;4.95;4.53;;;10.70;99.90;;;;;;5035831;28;20560;-81
2023/03/27 04:45:37;;;;;;;5.28;4.70;;;10.60;99.90;;;;;;5025593;28;20056;-80
2023/03/27 04:48:04;;;;;;;4.15;3.60;;;10.70;99.90;;;;;;5050799;28;20029;-81
2023/03/27 04:50:31;;;;;;;5.35;4.20;;;10.70;99.90;;;;;;5046986;28;20079;-81
2023/03/27 04:53:00;;;;;;;5.65;5.10;;;10.60;99.90;;;;;;5041168;28;20043;-81
2023/03/27 04:55:26;;;;;;;4.95;4.53;;;10.50;99.90;;;;;;5042940;28;20102;-81
2023/03/27 04:57:53;;;;;;;4.85;4.18;;;10.50;99.90;;;;;;5045911;28;20036;-81
2023/03/27 05:00:22;;;;;;;5.00;4.50;;;10.60;99.90;;;;;;5041802;28;20013;-80
2023/03/27 05:02:53;;;;;;;5.18;3.80;;;10.50;99.90;;;;;;5047604;28;20141;-81
2023/03/27 05:05:19;;;;;;;4.20;3.80;;;10.60;99.90;;;;;;5047128;28;20138;-78
2023/03/27 05:07:45;;;;;;;4.35;3.95;;;10.60;99.90;;;;;;5046336;28;20449;-78
2023/03/27 05:10:11;;;;;;;4.25;3.83;;;10.60;99.90;;;;;;5044861;28;20045;-75
2023/03/27 05:12:45;;;;;;;5.50;3.40;;;10.60;99.90;;;;;;5044242;28;20119;-80
2023/03/27 05:15:11;;;;;;;4.22;3.80;;;10.60;99.90;;;;;;5040233;28;20092;-76
2023/03/27 05:17:42;;;;;;;4.07;3.53;;;10.60;99.90;;;;;;5023868;28;20523;-67
2023/03/27 05:20:18;;;;;;;11.88;8.68;;;10.50;99.90;;;;;;5013951;28;20029;-67
2023/03/27 05:22:44;;;;;;;8.57;5.80;;;10.50;99.90;;;;;;5023040;28;20140;-67
2023/03/27 05:25:12;;;;;;;4.88;4.38;;;10.50;99.90;;;;;;5007414;28;20071;-67
2023/03/27 05:27:42;;;;;;;4.85;4.40;;;10.50;99.90;;;;;;5021123;28;20033;-68
2023/03/27 05:30:09;;;;;;;5.70;5.20;;;10.50;99.90;;;;;;5015212;28;20060;-68
2023/03/27 05:32:34;;;;;;;5.85;4.78;;;10.50;99.90;;;;;;5015497;28;20036;-67
2023/03/27 05:35:00;;;;;;;6.25;4.43;;;10.60;99.90;;;;;;5021739;28;20582;-68
2023/03/27 05:37:26;;;;;;;6.47;4.50;;;10.50;99.90;;;;;;5007453;28;20649;-68
2023/03/27 05:39:51;;;;;;;5.13;4.63;;;10.50;99.90;;;;;;5023858;28;20041;-68
2023/03/27 05:42:17;;;;;;;6.18;4.93;;;10.60;99.90;;;;;;5023087;28;20029;-68
2023/03/27 05:44:43;;;;;;;34.25;26.63;;;10.60;99.90;;;;;;5016550;28;21043;-69
2023/03/27 05:47:10;;;;;;;118.13;78.03;;;10.60;99.90;;;;;;5026113;28;20095;-69
2023/03/27 05:49:36;;;;;;;203.18;121.78;;;10.60;99.90;;;;;;5036689;28;20071;-67
2023/03/27 05:52:02;;;;;;;230.77;131.25;;;10.60;99.90;;;;;;5028609;28;20080;-68
2023/03/27 05:54:28;;;;;;;48.08;30.33;;;10.60;99.90;;;;;;5022603;28;20045;-67
2023/03/27 05:56:54;;;;;;;8.00;7.20;;;10.60;99.90;;;;;;5034856;28;20096;-67
2023/03/27 05:59:20;;;;;;;6.32;5.72;;;10.60;99.90;;;;;;5037563;28;20118;-67
2023/03/27 06:01:47;;;;;;;92.25;62.85;;;10.70;99.90;;;;;;5003532;28;20123;-68
2023/03/27 06:04:16;;;;;;;86.80;59.25;;;10.70;99.90;;;;;;5029958;28;20057;-67
2023/03/27 06:06:42;;;;;;;11.63;9.00;;;10.70;99.90;;;;;;5028546;28;20187;-67
2023/03/27 06:09:08;;;;;;;18.75;14.20;;;10.70;99.90;;;;;;5030944;28;20110;-68
2023/03/27 06:11:34;;;;;;;155.75;117.18;;;10.70;99.90;;;;;;5031237;28;20509;-67
2023/03/27 06:14:00;;;;;;;71.95;55.33;;;10.70;99.90;;;;;;5016805;28;20497;-76
2023/03/27 06:16:26;;;;;;;38.90;29.75;;;10.70;99.90;;;;;;5025305;28;20190;-76
2023/03/27 06:18:52;;;;;;;78.82;63.50;;;10.70;99.90;;;;;;5028330;28;20036;-74
2023/03/27 06:21:18;;;;;;;47.63;42.72;;;10.70;99.90;;;;;;5024387;28;21123;-75
2023/03/27 06:23:44;;;;;;;8.65;6.50;;;10.60;99.90;;;;;;5030564;28;20052;-75
2023/03/27 06:26:10;;;;;;;3.00;2.50;;;10.60;99.90;;;;;;5030512;28;20043;-75
2023/03/27 06:28:38;;;;;;;4.00;3.40;;;10.50;99.90;;;;;;5033054;28;20033;-75
2023/03/27 06:31:04;;;;;;;7.32;6.32;;;10.50;99.90;;;;;;5018485;28;20198;-73
2023/03/27 06:33:30;;;;;;;10.43;9.43;;;10.50;99.90;;;;;;5021260;28;20087;-75
2023/03/27 06:36:02;;;;;;;5.32;4.82;;;10.40;99.90;;;;;;5025752;28;20728;-74
2023/03/27 06:38:31;;;;;;;25.23;22.40;;;10.40;99.90;;;;;;5033547;28;20499;-74
2023/03/27 06:41:01;;;;;;;4.93;4.53;;;10.30;99.90;;;;;;5034103;28;20073;-75
2023/03/27 06:43:27;;;;;;;5.35;4.85;;;10.30;99.90;;;;;;5034292;28;20044;-74
2023/03/27 06:45:53;;;;;;;6.07;5.47;;;10.30;99.90;;;;;;5027619;28;20033;-75
2023/03/27 06:48:19;;;;;;;7.72;7.00;;;10.30;99.90;;;;;;5002948;28;20040;-76
2023/03/27 06:50:47;;;;;;;2.95;2.72;;;10.30;99.90;;;;;;5019517;28;20064;-66
2023/03/27 06:53:15;;;;;;;9.65;6.82;;;10.30;99.90;;;;;;5023072;28;20045;-66
2023/03/27 06:55:42;;;;;;;7.07;6.35;;;10.40;99.90;;;;;;5015708;28;20372;-67
2023/03/27 06:58:12;;;;;;;8.60;7.70;;;10.40;99.90;;;;;;5020051;28;20064;-67
2023/03/27 07:00:39;;;;;;;4.55;4.13;;;10.40;99.90;;;;;;5021026;28;20021;-66
2023/03/27 07:03:08;;;;;;;7.03;5.63;;;10.30;99.90;;;;;;5021621;28;20017;-67
2023/03/27 07:05:36;;;;;;;6.45;5.57;;;10.20;99.90;;;;;;5016768;28;20044;-66
2023/03/27 07:08:14;;;;;;;6.95;6.25;;;10.10;99.90;;;;;;5026835;28;20529;-67
2023/03/27 07:10:40;;;;;;;11.93;9.60;;;10.20;99.90;;;;;;5021128;28;20041;-73
2023/03/27 07:13:06;;;;;;;10.77;9.63;;;10.20;99.90;;;;;;5023071;28;20275;-75
2023/03/27 07:15:32;;;;;;;4.25;3.75;;;10.30;99.90;;;;;;5025118;28;20571;-73
2023/03/27 07:18:05;;;;;;;4.32;3.55;;;10.30;99.90;;;;;;5019839;28;20128;-73
2023/03/27 07:20:32;;;;;;;3.85;3.35;;;10.30;99.90;;;;;;5026559;28;20617;-74
2023/03/27 07:22:59;;;;;;;4.72;4.20;;;10.30;99.90;;;;;;5031021;28;20033;-72
2023/03/27 07:25:36;;;;;;;4.45;3.17;;;10.30;99.90;;;;;;5021020;28;20132;-73
2023/03/27 07:28:12;;;;;;;5.22;4.03;;;10.20;99.90;;;;;;5023343;28;20048;-74
2023/03/27 07:30:38;;;;;;;3.47;3.17;;;10.20;99.90;;;;;;5005115;28;20053;-74
2023/03/27 07:33:08;;;;;;;3.95;3.55;;;10.20;99.90;;;;;;5023796;28;20036;-74
2023/03/27 07:35:39;;;;;;;7.45;6.25;;;10.20;99.90;;;;;;5024175;28;21580;-77
2023/03/27 07:38:06;;;;;;;5.32;4.47;;;10.20;99.90;;;;;;5016820;28;20063;-74
2023/03/27 07:40:32;;;;;;;4.55;3.42;;;10.10;99.90;;;;;;5020001;28;20048;-74
2023/03/27 07:42:58;;;;;;;4.30;2.92;;;10.20;99.90;;;;;;5024538;28;20036;-77
2023/03/27 07:45:23;;;;;;;4.65;3.30;;;10.10;99.90;;;;;;5022005;28;20045;-73
2023/03/27 07:47:50;;;;;;;3.40;2.92;;;10.10;99.90;;;;;;5018178;28;20056;-74
2023/03/27 07:50:19;;;;;;;3.50;3.20;;;10.10;99.90;;;;;;5018077;28;20059;-75
2023/03/27 07:52:45;;;;;;;2.75;2.55;;;10.10;99.90;;;;;;5017511;28;20493;-74
2023/03/27 07:55:17;;;;;;;4.18;2.67;;;10.10;99.90;;;;;;5003970;28;20045;-73
2023/03/27 07:57:47;;;;;;;3.97;3.15;;;10.10;99.90;;;;;;5023522;28;20041;-75
2023/03/27 08:00:15;;;;;;;4.85;3.10;;;10.20;99.90;;;;;;5019256;28;20084;-75
2023/03/27 08:02:41;;;;;;;3.50;2.63;;;10.20;99.90;;;;;;5024912;28;20025;-76
2023/03/27 08:05:08;;;;;;;4.28;3.28;;;10.20;99.90;;;;;;5023256;28;20044;-77
2023/03/27 08:07:35;;;;;;;2.63;2.42;;;10.20;99.90;;;;;;5018905;28;20065;-76
2023/03/27 08:10:02;;;;;;;13.82;3.90;;;10.20;99.90;;;;;;5021201;28;20116;-77
2023/03/27 08:12:28;;;;;;;7.07;5.60;;;10.10;99.90;;;;;;5003817;28;23378;-74
2023/03/27 08:14:53;;;;;;;4.68;3.00;;;10.20;99.90;;;;;;5005653;28;20038;-76
2023/03/27 08:17:19;;;;;;;3.78;2.67;;;10.20;99.90;;;;;;5020476;28;20043;-75
2023/03/27 08:19:45;;;;;;;3.47;2.38;;;10.20;99.90;;;;;;5024130;28;20118;-76
2023/03/27 08:22:11;;;;;;;9.70;7.05;;;10.20;99.90;;;;;;5000549;28;20075;-76
2023/03/27 08:24:37;;;;;;;8.77;6.68;;;10.20;99.90;;;;;;5023344;28;20052;-76
2023/03/27 08:27:03;;;;;;;7.35;3.90;;;10.20;99.90;;;;;;5022885;28;20148;-77
2023/03/27 08:29:30;;;;;;;4.10;3.60;;;10.10;99.90;;;;;;4999026;28;20076;-75
2023/03/27 08:31:55;;;;;;;4.47;4.07;;;10.00;99.90;;;;;;5021154;28;20087;-76
2023/03/27 08:34:21;;;;;;;3.10;2.25;;;10.00;99.90;;;;;;5012793;28;20036;-77
2023/03/27 08:36:46;;;;;;;3.95;2.10;;;9.90;99.90;;;;;;5020642;28;20036;-77
2023/03/27 08:39:12;;;;;;;2.35;1.70;;;10.00;99.90;;;;;;5020508;28;21163;-78
2023/03/27 08:41:47;;;;;;;3.65;1.60;;;10.10;99.90;;;;;;5023120;28;20041;-74
2023/03/27 08:44:16;;;;;;;2.22;1.70;;;10.10;99.90;;;;;;5022280;28;20102;-75
2023/03/27 08:46:51;;;;;;;2.70;2.00;;;10.00;99.90;;;;;;5009038;28;20564;-67
2023/03/27 08:49:18;;;;;;;2.38;2.17;;;10.00;99.90;;;;;;5014487;28;20112;-69
2023/03/27 08:51:51;;;;;;;2.28;1.90;;;9.90;99.90;;;;;;5014348;28;20144;-69
2023/03/27 08:54:21;;;;;;;3.05;2.78;;;9.90;99.90;;;;;;5011153;28;20030;-69
2023/03/27 08:56:47;;;;;;;10.48;7.28;;;9.90;99.90;;;;;;5021776;28;20040;-69
2023/03/27 08:59:17;;;;;;;72.88;41.30;;;9.90;99.90;;;;;;5021965;28;20579;-66
2023/03/27 09:01:57;;;;;;;159.48;81.50;;;9.90;99.90;;;;;;5010720;28;20045;-68
2023/03/27 09:04:41;;;;;;;64.72;34.10;;;9.90;99.90;;;;;;5016244;28;20094;-67
2023/03/27 09:07:10;;;;;;;73.93;42.92;;;9.90;99.90;;;;;;5016256;28;21806;-67
2023/03/27 09:10:03;;;;;;;53.40;30.70;;;10.00;99.90;;;;;;5022701;28;20074;-67
2023/03/27 09:12:55;;;;;;;34.00;22.00;;;10.10;99.90;;;;;;5003750;28;20049;-68
2023/03/27 09:15:31;;;;;;;7.72;4.47;;;10.10;99.90;;;;;;5001316;28;20612;-68
2023/03/27 09:18:12;;;;;;;6.45;4.00;;;10.10;99.90;;;;;;5022505;28;20064;-68
2023/03/27 09:23:45;;;;;;;7.40;2.80;;;10.10;99.90;;;;;;4909264;28;20506;-68
2023/03/27 09:26:29;;;;;;;0.50;0.50;;;10.10;99.90;;;;;;4965914;28;20042;-80
2023/03/27 09:29:33;;;;;;;16.65;11.45;;;10.10;99.90;;;;;;4964822;28;20711;-79
2023/03/27 09:31:59;;;;;;;12.35;9.40;;;10.10;99.90;;;;;;4953653;28;20047;-77
2023/03/27 09:34:31;;;;;;;20.17;14.25;;;10.10;99.90;;;;;;4965329;28;20034;-80
2023/03/27 09:36:58;;;;;;;4.97;3.05;;;10.10;99.90;;;;;;4963437;28;20121;-80
2023/03/27 09:39:34;;;;;;;2.17;0.57;;;10.10;99.90;;;;;;4970119;28;20038;-80
2023/03/27 09:42:10;;;;;;;0.32;0.30;;;10.20;99.90;;;;;;4966146;28;20082;-78
2023/03/27 09:44:38;;;;;;;0.38;0.30;;;10.20;99.90;;;;;;4974744;28;20057;-80
2023/03/27 09:47:13;;;;;;;1.45;0.30;;;10.20;99.90;;;;;;4973644;28;20032;-77
2023/03/27 09:49:44;;;;;;;0.30;0.30;;;10.20;99.90;;;;;;4971466;28;20089;-76
2023/03/27 09:52:37;;;;;;;0.73;0.30;;;10.20;99.90;;;;;;4958647;28;20447;-79
2023/03/27 09:55:21;;;;;;;0.63;0.30;;;10.20;99.90;;;;;;4961620;28;20033;-75
2023/03/27 09:57:47;;;;;;;1.23;0.55;;;10.20;99.90;;;;;;4967974;28;20049;-79
2023/03/27 10:00:32;;;;;;;1.30;0.40;;;10.20;99.90;;;;;;4967861;28;20039;-78
2023/03/27 10:03:07;;;;;;;0.57;0.55;;;10.20;99.90;;;;;;4966097;28;20034;-68
2023/03/27 10:05:33;;;;;;;2.60;0.30;;;10.20;99.90;;;;;;4969075;28;20035;-68
2023/03/27 10:08:00;;;;;;;0.95;0.60;;;10.30;99.90;;;;;;4957414;28;20035;-69
2023/03/27 10:10:31;;;;;;;1.58;0.60;;;10.30;99.90;;;;;;4965468;28;20025;-68
2023/03/27 10:13:01;;;;;;;1.15;1.02;;;10.30;99.90;;;;;;4967812;28;21061;-68
2023/03/27 10:15:34;;;;;;;2.95;2.63;;;10.30;99.90;;;;;;4966150;28;20503;-68
2023/03/27 10:18:07;;;;;;;8.20;6.45;;;10.40;99.90;;;;;;4969674;28;20529;-69
2023/03/27 10:20:33;;;;;;;4.88;3.28;;;10.30;99.90;;;;;;4958347;28;20050;-70
2023/03/27 10:23:07;;;;;;;4.68;3.70;;;10.20;99.90;;;;;;4943187;28;20414;-69
2023/03/27 10:25:37;;;;;;;4.57;3.40;;;10.20;99.90;;;;;;4947289;28;20130;-69
2023/03/27 10:28:23;;;;;;;3.63;3.08;;;10.20;99.90;;;;;;4950635;28;20030;-69
2023/03/27 10:31:32;;;;;;;3.85;3.33;;;10.20;99.90;;;;;;4944175;28;20031;-68
2023/03/27 10:34:00;;;;;;;8.88;7.97;;;10.10;99.90;;;;;;4926907;28;20050;-68
2023/03/27 10:36:27;;;;;;;1.15;1.05;;;10.10;99.90;;;;;;4925375;28;20341;-67
2023/03/27 10:39:05;;;;;;;2.78;1.10;;;10.10;99.90;;;;;;4928311;28;20031;-67
2023/03/27 10:41:34;;;;;;;1.85;1.25;;;10.00;99.90;;;;;;4936870;28;20047;-68
2023/03/27 10:44:03;;;;;;;0.70;0.60;;;10.00;99.90;;;;;;4931439;28;20066;-67
2023/03/27 10:46:29;;;;;;;6.20;3.70;;;10.00;99.90;;;;;;4930812;28;20023;-67
2023/03/27 10:49:01;;;;;;;8.32;3.88;;;10.00;99.90;;;;;;4913858;28;20429;-66
2023/03/27 10:51:36;;;;;;;3.03;2.10;;;10.00;99.90;;;;;;4917901;28;20046;-67
2023/03/27 10:54:35;;;;;;;2.83;2.30;;;10.00;99.90;;;;;;4922719;28;20035;-67
2023/03/27 10:57:12;;;;;;;8.70;7.80;;;10.00;99.90;;;;;;4925821;28;20046;-67
2023/03/27 10:59:54;;;;;;;3.60;2.88;;;10.00;99.90;;;;;;4914212;28;20043;-67
2023/03/27 11:02:33;;;;;;;3.30;1.92;;;10.00;99.90;;;;;;4921578;28;20051;-66
2023/03/27 11:05:32;;;;;;;2.28;1.73;;;10.00;99.90;;;;;;4932559;28;20035;-67
2023/03/27 11:08:27;;;;;;;2.47;1.80;;;10.00;99.90;;;;;;4928942;28;20054;-68
2023/03/27 11:10:56;;;;;;;1.65;1.27;;;10.00;99.90;;;;;;4930873;28;20062;-67
2023/03/27 11:13:44;;;;;;;3.60;1.50;;;10.00;99.90;;;;;;4928595;28;20396;-67
2023/03/27 11:16:22;;;;;;;2.10;1.90;;;10.00;99.90;;;;;;4931655;28;20522;-66
2023/03/27 11:19:11;;;;;;;2.22;1.83;;;10.00;99.90;;;;;;4931498;28;20031;-66
2023/03/27 11:21:46;;;;;;;1.20;1.10;;;10.00;99.90;;;;;;4933006;28;20086;-67
2023/03/27 11:24:21;;;;;;;1.25;1.15;;;10.00;99.90;;;;;;4932234;28;20039;-67
2023/03/27 11:26:57;;;;;;;1.38;1.27;;;10.00;99.90;;;;;;4934417;28;20027;-67
2023/03/27 11:29:31;;;;;;;1.98;1.80;;;10.10;99.90;;;;;;4933869;28;20157;-67
2023/03/27 11:32:14;;;;;;;9.02;5.68;;;10.00;99.90;;;;;;4929182;28;20031;-66
2023/03/27 11:34:56;;;;;;;12.32;9.73;;;10.00;99.90;;;;;;4935728;28;20042;-66
2023/03/27 11:37:41;;;;;;;7.53;5.80;;;10.00;99.90;;;;;;4932887;28;20145;-78
2023/03/27 11:40:22;;;;;;;4.18;3.50;;;10.10;99.90;;;;;;4932502;28;20111;-67
2023/03/27 11:42:48;;;;;;;2.75;2.55;;;10.20;99.90;;;;;;4930734;28;20043;-67
2023/03/27 11:45:19;;;;;;;2.25;2.03;;;10.30;99.90;;;;;;4932241;28;20086;-67
2023/03/27 11:48:06;;;;;;;2.57;2.07;;;10.30;99.90;;;;;;4933550;28;20038;-66
2023/03/27 11:51:01;;;;;;;2.22;1.95;;;10.40;99.90;;;;;;4932604;28;20046;-67
2023/03/27 11:53:30;;;;;;;1.95;1.60;;;10.50;99.90;;;;;;4927093;28;20050;-66
2023/03/27 11:56:09;;;;;;;1.45;1.20;;;10.50;99.90;;;;;;4936265;28;20130;-67
2023/03/27 11:58:38;;;;;;;1.70;1.17;;;10.60;99.90;;;;;;4931096;28;20078;-66
2023/03/27 12:01:15;;;;;;;2.60;1.30;;;10.60;99.90;;;;;;4929442;28;20046;-66
2023/03/27 12:03:58;;;;;;;1.52;1.42;;;10.60;99.90;;;;;;4926929;28;20478;-66
2023/03/27 12:06:54;;;;;;;2.33;2.00;;;10.60;99.90;;;;;;4925311;28;20134;-66
2023/03/27 12:09:45;;;;;;;9.23;7.78;;;10.50;99.90;;;;;;4921614;28;20497;-66
2023/03/27 12:12:36;;;;;;;9.80;8.27;;;10.50;99.90;;;;;;4926114;28;20134;-65
2023/03/27 12:15:26;;;;;;;9.02;8.13;;;10.40;99.90;;;;;;4933361;28;20036;-77
2023/03/27 12:18:22;;;;;;;9.57;7.07;;;10.40;99.90;;;;;;4934597;28;20401;-78
2023/03/27 12:20:55;;;;;;;10.82;7.20;;;10.50;99.90;;;;;;4937902;28;20126;-76
2023/03/27 12:23:55;;;;;;;7.20;6.50;;;10.40;99.90;;;;;;4933670;28;20512;-75
2023/03/27 12:26:26;;;;;;;8.98;6.40;;;10.20;99.90;;;;;;4929916;28;20661;-79
2023/03/27 12:29:33;;;;;;;6.03;5.43;;;10.20;99.90;;;;;;4921860;28;20416;-76
2023/03/27 12:31:59;;;;;;;5.28;4.78;;;10.00;99.90;;;;;;4925802;28;20050;-80
2023/03/27 12:34:55;;;;;;;4.68;4.20;;;9.80;99.90;;;;;;4929852;28;20036;-66
2023/03/27 12:37:29;;;;;;;7.80;6.47;;;9.70;99.90;;;;;;4928865;28;20039;-67
2023/03/27 12:39:59;;;;;;;4.60;4.20;;;9.60;99.90;;;;;;4936353;28;20280;-67
2023/03/27 12:42:40;;;;;;;4.50;3.95;;;9.70;99.90;;;;;;4933829;28;20043;-67
2023/03/27 12:45:15;;;;;;;4.25;3.85;;;9.60;99.90;;;;;;4925574;28;20035;-66
2023/03/27 12:48:03;;;;;;;4.05;3.75;;;9.50;99.90;;;;;;4933135;28;20188;-66
2023/03/27 12:50:33;;;;;;;4.13;3.72;;;9.40;99.90;;;;;;4934451;28;20121;-66
2023/03/27 12:53:04;;;;;;;3.25;2.90;;;9.40;99.90;;;;;;4930719;28;20081;-66
2023/03/27 12:55:31;;;;;;;3.08;2.78;;;9.40;99.90;;;;;;4934684;28;20386;-66
2023/03/27 12:57:59;;;;;;;3.80;2.75;;;9.30;99.90;;;;;;4933025;28;20381;-67
2023/03/27 13:00:27;;;;;;;2.90;1.80;;;9.20;99.90;;;;;;4935511;28;20031;-67
2023/03/27 13:03:15;;;;;;;1.13;1.02;;;9.10;99.90;;;;;;4933960;28;20492;-66
2023/03/27 13:06:00;;;;;;;1.85;0.88;;;8.90;99.90;;;;;;4938197;28;20032;-66
2023/03/27 13:09:09;;;;;;;0.93;0.93;;;8.80;99.90;;;;;;4932314;28;20054;-67
2023/03/27 13:11:43;;;;;;;0.82;0.55;;;8.70;99.90;;;;;;4918397;28;20070;-67
2023/03/27 13:14:27;;;;;;;0.93;0.93;;;8.60;99.90;;;;;;4930691;28;20035;-76
2023/03/27 13:17:20;;;;;;;0.77;0.70;;;8.40;99.90;;;;;;4921085;28;20063;-76